createdAt,value
2023-01-05T00:00:23.020Z,96172.48
2023-01-05T00:02:51.701Z,96171.16
2023-01-05T00:05:20.325Z,96167.73
2023-01-05T00:07:48.895Z,96172.83
2023-01-05T00:10:35.689Z,96173.59
2023-01-05T00:13:22.358Z,96170.08
2023-01-05T00:16:08.772Z,96173.92
2023-01-05T00:18:55.126Z,96154.28
2023-01-05T00:21:42.103Z,96164.12
2023-01-05T00:24:10.591Z,96157.05
2023-01-05T00:26:39.298Z,96157.53
2023-01-05T00:29:07.920Z,96158.38
2023-01-05T00:31:36.543Z,96149.92
2023-01-05T00:34:05.273Z,96147.05
2023-01-05T00:36:33.870Z,96143.62
2023-01-05T00:39:02.459Z,96140.42
2023-01-05T00:41:31.052Z,96138.61
2023-01-05T00:43:59.762Z,96132.05
2023-01-05T00:46:28.407Z,96131.98
2023-01-05T00:48:57.079Z,96140.61
2023-01-05T00:51:25.684Z,96135.48
2023-01-05T00:53:54.385Z,96137.92
2023-01-05T00:56:23.025Z,96141.44
2023-01-05T00:58:55.804Z,96140.69
2023-01-05T01:01:27.707Z,96140.91
2023-01-05T01:03:57.405Z,96144.04
2023-01-05T01:06:26.439Z,96146.48
2023-01-05T01:08:55.068Z,96138.69
2023-01-05T01:11:23.713Z,96137.24
2023-01-05T01:13:52.336Z,96147.14
2023-01-05T01:16:21.221Z,96141.28
2023-01-05T01:18:50.339Z,96147.06
2023-01-05T01:21:18.941Z,96137.13
2023-01-05T01:23:47.670Z,96140.41
2023-01-05T01:26:16.300Z,96132.59
2023-01-05T01:28:46.574Z,96126.19
2023-01-05T01:31:15.573Z,96125.38
2023-01-05T01:33:44.268Z,96117.25
2023-01-05T01:36:12.838Z,96118.80
2023-01-05T01:38:41.439Z,96115.32
2023-01-05T01:41:10.200Z,96102.67
2023-01-05T01:43:44.859Z,96103.12
2023-01-05T01:46:15.080Z,96088.33
2023-01-05T01:48:49.572Z,96089.38
2023-01-05T01:51:21.140Z,96088.98
2023-01-05T01:53:52.802Z,96080.49
2023-01-05T01:56:24.711Z,96074.37
2023-01-05T01:58:54.489Z,96069.22
2023-01-05T02:01:23.502Z,96070.86
2023-01-05T02:03:52.374Z,96069.80
2023-01-05T02:06:21.169Z,96061.42
2023-01-05T02:08:50.686Z,96058.21
2023-01-05T02:11:31.423Z,96057.09
2023-01-05T02:14:17.551Z,96055.73
2023-01-05T02:17:11.154Z,96049.61
2023-01-05T02:19:48.923Z,96041.55
2023-01-05T02:22:23.684Z,96039.11
2023-01-05T02:25:22.590Z,96044.69
2023-01-05T02:28:09.501Z,96047.55
2023-01-05T02:31:08.510Z,96041.53
2023-01-05T02:33:50.668Z,96033.43
2023-01-05T02:36:29.127Z,96047.65
2023-01-05T02:39:03.771Z,96038.06
2023-01-05T02:41:35.368Z,96046.03
2023-01-05T02:44:04.304Z,96039.51
2023-01-05T02:46:33.025Z,96036.86
2023-01-05T02:49:04.639Z,96035.82
2023-01-05T02:51:38.890Z,96035.16
2023-01-05T02:54:22.223Z,96028.67
2023-01-05T02:56:53.932Z,96026.31
2023-01-05T02:59:40.091Z,96020.61
2023-01-05T03:02:11.913Z,96016.92
2023-01-05T03:04:49.866Z,96013.13
2023-01-05T03:07:21.532Z,96007.27
2023-01-05T03:09:50.721Z,96010.48
2023-01-05T03:12:49.076Z,96007.98
2023-01-05T03:15:23.539Z,95997.95
2023-01-05T03:17:55.199Z,95993.20
2023-01-05T03:20:26.857Z,95990.45
2023-01-05T03:23:16.187Z,95985.80
2023-01-05T03:26:04.129Z,95973.41
2023-01-05T03:28:53.348Z,95968.20
2023-01-05T03:32:00.843Z,95964.80
2023-01-05T03:34:58.575Z,95960.50
2023-01-05T03:37:36.094Z,95969.89
2023-01-05T03:40:09.861Z,95966.80
2023-01-05T03:42:39.621Z,95958.84
2023-01-05T03:45:10.231Z,95961.57
2023-01-05T03:47:38.837Z,95957.23
2023-01-05T03:50:08.784Z,95962.41
2023-01-05T03:52:37.521Z,95963.36
2023-01-05T03:55:07.012Z,95960.66
2023-01-05T03:57:35.800Z,95960.58
2023-01-05T04:00:06.074Z,95966.12
2023-01-05T04:02:34.969Z,95956.97
2023-01-05T04:05:03.750Z,95958.17
2023-01-05T04:07:32.530Z,95955.05
2023-01-05T04:10:01.474Z,95957.92
2023-01-05T04:12:30.549Z,95949.95
2023-01-05T04:14:59.137Z,95956.38
2023-01-05T04:17:33.660Z,95948.70
2023-01-05T04:20:17.606Z,95952.35
2023-01-05T04:22:55.034Z,95937.83
2023-01-05T04:25:23.846Z,95945.25
2023-01-05T04:27:52.498Z,95940.01
2023-01-05T04:30:21.659Z,95936.53
2023-01-05T04:32:50.460Z,95907.31
2023-01-05T04:35:18.946Z,95940.01
2023-01-05T04:37:47.495Z,95939.68
2023-01-05T04:40:16.707Z,95940.55
2023-01-05T04:43:11.315Z,95942.72
2023-01-05T04:48:21.888Z,95944.26
2023-01-05T04:50:55.614Z,95937.25
2023-01-05T04:53:24.660Z,95934.48
2023-01-05T04:55:54.005Z,95945.07
2023-01-05T04:58:25.661Z,95941.75
2023-01-05T05:00:54.157Z,95946.78
2023-01-05T05:03:24.692Z,95954.05
2023-01-05T05:05:53.178Z,95957.27
2023-01-05T05:08:24.858Z,95959.80
2023-01-05T05:10:53.454Z,95956.15
2023-01-05T05:13:22.074Z,95962.32
2023-01-05T05:15:50.807Z,95958.97
2023-01-05T05:18:19.695Z,95956.78
2023-01-05T05:20:51.762Z,95963.91
2023-01-05T05:23:22.351Z,95957.84
2023-01-05T05:25:52.647Z,95961.61
2023-01-05T05:28:23.227Z,95962.53
2023-01-05T05:30:51.882Z,95954.30
2023-01-05T05:33:20.492Z,95952.43
2023-01-05T05:35:49.149Z,95946.91
2023-01-05T05:38:19.481Z,95952.05
2023-01-05T05:40:50.145Z,95950.80
2023-01-05T05:43:19.067Z,95941.25
2023-01-05T05:45:50.624Z,95936.06
2023-01-05T05:48:18.203Z,95924.55
2023-01-05T05:50:47.526Z,95922.20
2023-01-05T05:53:16.561Z,95917.86
2023-01-05T05:55:56.832Z,95919.09
2023-01-05T05:58:36.800Z,95920.09
2023-01-05T06:01:15.868Z,95914.27
2023-01-05T06:03:47.175Z,95912.31
2023-01-05T06:06:16.605Z,95909.77
2023-01-05T06:08:52.929Z,95910.77
2023-01-05T06:11:28.687Z,95904.72
2023-01-05T06:14:08.635Z,95900.52
2023-01-05T06:16:43.560Z,95902.33
2023-01-05T06:19:13.825Z,95895.33
2023-01-05T06:21:53.059Z,95891.97
2023-01-05T06:24:33.536Z,95898.34
2023-01-05T06:27:03.004Z,95906.20
2023-01-05T06:29:31.732Z,95893.62
2023-01-05T06:32:02.195Z,95890.28
2023-01-05T06:34:38.850Z,95894.45
2023-01-05T06:37:31.829Z,95894.30
2023-01-05T06:40:05.328Z,95895.56
2023-01-05T06:42:40.887Z,95890.39
2023-01-05T06:45:10.965Z,95890.28
2023-01-05T06:47:39.610Z,95890.94
2023-01-05T06:50:09.146Z,95893.04
2023-01-05T06:52:44.428Z,95891.59
2023-01-05T06:55:25.786Z,95887.20
2023-01-05T06:58:00.487Z,95884.11
2023-01-05T07:00:25.683Z,95883.41
2023-01-05T07:02:54.703Z,95883.36
2023-01-05T07:05:27.645Z,95879.23
2023-01-05T07:08:21.151Z,95884.30
2023-01-05T07:14:33.755Z,95885.78
2023-01-05T07:17:00.559Z,95883.81
2023-01-05T07:19:29.482Z,95884.81
2023-01-05T07:25:16.210Z,95885.20
2023-01-05T07:27:45.419Z,95879.52
2023-01-05T07:30:26.188Z,95880.57
2023-01-05T07:33:18.741Z,95880.45
2023-01-05T07:42:20.141Z,95867.27
2023-01-05T07:45:38.668Z,95863.41
2023-01-05T07:47:43.443Z,95863.19
2023-01-05T07:50:18.649Z,95859.38
2023-01-05T07:52:52.067Z,95860.14
2023-01-05T07:55:29.214Z,95853.54
2023-01-05T07:58:02.476Z,95852.95
2023-01-05T08:00:39.399Z,95851.25
2023-01-05T08:03:17.850Z,95850.37
2023-01-05T08:05:51.406Z,95847.05
2023-01-05T08:08:30.747Z,95846.13
2023-01-05T08:11:05.038Z,95806.11
2023-01-05T08:13:54.575Z,95847.77
2023-01-05T08:16:28.350Z,95845.56
2023-01-05T08:18:57.361Z,95793.58
2023-01-05T08:21:31.935Z,95838.25
2023-01-05T08:24:04.849Z,95839.69
2023-01-05T08:26:39.986Z,95840.20
2023-01-05T08:29:08.758Z,95842.90
2023-01-05T08:31:40.415Z,95838.48
2023-01-05T08:34:10.027Z,95840.00
2023-01-05T08:36:59.983Z,95841.06
2023-01-05T08:39:29.824Z,95843.85
2023-01-05T08:42:21.267Z,95845.75
2023-01-05T08:45:03.688Z,95834.36
2023-01-05T08:47:40.711Z,95832.06
2023-01-05T08:50:16.280Z,95833.60
2023-01-05T08:52:48.362Z,95829.84
2023-01-05T08:55:26.255Z,95825.63
2023-01-05T08:58:00.850Z,95821.12
2023-01-05T09:00:34.533Z,95818.13
2023-01-05T09:06:00.320Z,95814.40
2023-01-05T09:08:44.413Z,95807.02
2023-01-05T09:11:16.188Z,95795.80
2023-01-05T09:13:47.816Z,95789.44
2023-01-05T09:16:42.512Z,95773.41
2023-01-05T09:18:51.259Z,95778.37
2023-01-05T09:21:22.593Z,95760.88
2023-01-05T09:23:51.676Z,95755.34
2023-01-05T09:26:20.436Z,95746.77
2023-01-05T09:28:51.534Z,95738.02
2023-01-05T09:31:22.224Z,95730.23
2023-01-05T09:33:51.058Z,95731.41
2023-01-05T09:36:20.913Z,95735.02
2023-01-05T09:38:54.155Z,95727.63
2023-01-05T09:41:26.258Z,95726.74
2023-01-05T09:43:58.308Z,95721.20
2023-01-05T09:46:30.072Z,95706.70
2023-01-05T09:49:01.830Z,95683.05
2023-01-05T09:51:31.122Z,95690.75
2023-01-05T09:54:02.379Z,95683.20
2023-01-05T09:59:14.276Z,95679.81
2023-01-05T10:01:45.585Z,95683.39
2023-01-05T10:04:30.736Z,95672.53
2023-01-05T10:07:03.160Z,95667.52
2023-01-05T10:09:36.562Z,95667.17
2023-01-05T10:12:37.422Z,95666.53
2023-01-05T10:15:15.337Z,95660.12
2023-01-05T10:17:45.235Z,95659.86
2023-01-05T10:20:30.202Z,95659.92
2023-01-05T10:23:14.239Z,95650.89
2023-01-05T10:25:51.350Z,95653.76
2023-01-05T10:28:44.648Z,95648.52
2023-01-05T10:31:31.205Z,95642.03
2023-01-05T10:34:14.375Z,95633.84
2023-01-05T10:37:07.879Z,95629.51
2023-01-05T10:39:27.099Z,95630.77
2023-01-05T10:41:58.714Z,95631.95
2023-01-05T10:44:39.012Z,95623.38
2023-01-05T10:47:12.162Z,95619.61
2023-01-05T10:49:43.752Z,95605.98
2023-01-05T10:52:16.013Z,95596.94
2023-01-05T10:54:53.481Z,95595.63
2023-01-05T10:57:36.636Z,95598.21
2023-01-05T11:00:12.048Z,95590.68
2023-01-05T11:02:44.141Z,95590.81
2023-01-05T11:05:18.626Z,95587.08
2023-01-05T11:07:56.809Z,95588.75
2023-01-05T11:10:31.241Z,95581.23
2023-01-05T11:13:06.027Z,95574.47
2023-01-05T11:15:37.658Z,95571.38
2023-01-05T11:18:07.823Z,95573.45
2023-01-05T11:20:36.598Z,95570.65
2023-01-05T11:23:10.050Z,95568.31
2023-01-05T11:28:51.098Z,95563.28
2023-01-05T11:31:20.680Z,95560.16
2023-01-05T11:33:51.086Z,95561.15
2023-01-05T11:36:19.772Z,95553.50
2023-01-05T11:38:54.258Z,95546.80
2023-01-05T11:41:24.987Z,95550.86
2023-01-05T11:43:54.668Z,95549.91
2023-01-05T11:46:24.168Z,95546.58
2023-01-05T11:48:55.893Z,95537.02
2023-01-05T11:51:41.975Z,95538.47
2023-01-05T11:54:31.521Z,95531.44
2023-01-05T11:57:17.775Z,95529.48
2023-01-05T11:59:47.916Z,95525.99
2023-01-05T12:02:25.567Z,95528.55
2023-01-05T12:05:01.847Z,95527.59
2023-01-05T12:07:45.029Z,95529.73
2023-01-05T12:10:36.335Z,95530.09
2023-01-05T12:13:31.829Z,95520.37
2023-01-05T12:16:09.487Z,95520.02
2023-01-05T12:18:53.472Z,95508.64
2023-01-05T14:25:54.296Z,95431.12
2023-01-05T14:32:33.926Z,95431.39
2023-01-05T15:17:08.720Z,95455.76
2023-01-05T15:23:04.548Z,95449.33
2023-01-05T15:26:02.639Z,95449.97
2023-01-05T15:31:47.526Z,95457.63
2023-01-05T15:34:20.141Z,95462.17
2023-01-05T15:36:57.596Z,95457.34
2023-01-05T15:39:34.998Z,95460.26
2023-01-05T15:42:22.122Z,95466.87
2023-01-05T15:44:58.229Z,95466.42
2023-01-05T15:47:30.932Z,95458.89
2023-01-05T15:50:03.027Z,95458.16
2023-01-05T15:52:40.179Z,95456.05
2023-01-05T15:55:14.960Z,95451.29
2023-01-05T15:57:44.148Z,95462.17
2023-01-05T16:00:30.860Z,95458.80
2023-01-05T16:03:00.182Z,95453.67
2023-01-05T16:05:32.823Z,95457.45
2023-01-05T16:08:06.449Z,95449.57
2023-01-05T16:10:41.083Z,95442.45
2023-01-05T16:13:18.243Z,95440.96
2023-01-05T16:15:51.644Z,95449.23
2023-01-05T16:18:33.287Z,95456.63
2023-01-05T17:26:25.754Z,95486.69
2023-01-05T18:07:54.285Z,95467.13
2023-01-05T18:11:01.307Z,95476.17
2023-01-05T18:31:55.294Z,95461.53
2023-01-05T18:34:24.322Z,95464.25
2023-01-05T18:37:01.581Z,95463.58
2023-01-05T18:39:24.164Z,95477.65
2023-01-05T18:41:56.434Z,95465.19
2023-01-05T18:44:25.352Z,95469.08
2023-01-05T18:47:02.761Z,95476.92
2023-01-05T18:53:20.168Z,95490.89
2023-01-05T18:55:50.043Z,95499.49
2023-01-05T18:58:18.801Z,95497.06
2023-01-05T19:00:47.564Z,95501.27
2023-01-05T19:03:16.391Z,95501.38
2023-01-05T19:05:46.083Z,95502.00
2023-01-05T19:08:15.127Z,95509.48
2023-01-05T19:10:44.017Z,95509.60
2023-01-05T19:13:12.735Z,95508.50
2023-01-05T19:15:45.490Z,95511.47
2023-01-05T19:18:17.227Z,95513.13
2023-01-05T19:30:33.256Z,95518.73
2023-01-05T19:49:24.188Z,95543.76
2023-01-05T19:52:00.220Z,95542.21
2023-01-05T19:55:13.626Z,95535.38
2023-01-05T19:58:25.855Z,95527.20
2023-01-05T20:00:56.808Z,95521.77
2023-01-05T20:24:14.950Z,95529.45
2023-01-05T20:26:45.986Z,95529.38
2023-01-05T20:29:16.409Z,95528.70
2023-01-05T20:37:59.377Z,95487.59
2023-01-05T20:40:30.942Z,95537.24
2023-01-05T20:42:59.765Z,95543.57
2023-01-05T20:45:28.590Z,95549.48
2023-01-05T20:47:58.746Z,95541.81
2023-01-05T20:50:27.369Z,95549.56
2023-01-05T20:52:56.055Z,95549.05
2023-01-05T20:55:24.740Z,95553.12
2023-01-05T20:57:53.411Z,95546.03
2023-01-05T21:22:19.705Z,95571.21
2023-01-05T21:24:48.679Z,95573.31
2023-01-05T21:50:32.544Z,95581.52
2023-01-05T21:53:56.825Z,95585.80
2023-01-05T21:56:40.790Z,95593.27
2023-01-05T22:02:16.893Z,95587.77
2023-01-05T22:46:40.745Z,95619.16
2023-01-05T22:49:34.832Z,95610.72
2023-01-05T22:52:05.109Z,95612.65
2023-01-05T22:54:33.869Z,95617.55
2023-01-05T22:57:02.483Z,95633.59
2023-01-05T22:59:31.069Z,95633.59
2023-01-05T23:01:59.745Z,95621.50
2023-01-05T23:04:28.544Z,95637.17
2023-01-05T23:06:57.206Z,95634.73
2023-01-05T23:09:25.849Z,95631.95
2023-01-05T23:11:54.543Z,95632.70
2023-01-05T23:14:26.141Z,95628.39
2023-01-05T23:16:56.488Z,95633.56
2023-01-05T23:19:25.114Z,95634.23
2023-01-05T23:21:53.729Z,95638.84
2023-01-05T23:24:22.410Z,95649.69
2023-01-05T23:26:51.110Z,95649.19
2023-01-05T23:29:19.896Z,95654.07
2023-01-05T23:31:48.582Z,95663.47
2023-01-05T23:34:17.311Z,95660.47
2023-01-05T23:36:45.960Z,95661.28
2023-01-05T23:39:14.712Z,95662.89
2023-01-05T23:41:43.537Z,95660.41
2023-01-05T23:44:14.646Z,95666.61
2023-01-05T23:46:44.089Z,95667.02
2023-01-05T23:49:14.199Z,95673.19
2023-01-05T23:51:42.793Z,95686.83
2023-01-05T23:54:11.479Z,95696.23
2023-01-05T23:56:40.160Z,95699.11
2023-01-05T23:59:10.295Z,95710.06
